Rachel — D5CG4 — position and weather

sailwx.info

Track history (hours):
 
Tides and Currents Weather Stations Pressure Air Temp Water Temp Dewpoint Dewpoint Depression Visibility Wind Speed Wind Dir Waves Ship Positions

Rachel

Last reported at 2014-Oct-27 23:33 UTC. Time now 2014-Nov-01 08:30 UTC.
Position S 04°25' E 112°14'.

Length 189 m; draft 6.5 m.

Type: Cargo ship. MMSI: 636015692.

Date/timePositionNaut miles runAvg speedWind from/ knotsBaromVisibWave heightAir tempDewpointWater temp
2014-Oct-27 23:33S 04°25' E 112°14'1211.8
2014-Oct-27 22:33S 04°24' E 112°03'1211.8
2014-Oct-27 21:33S 04°23' E 111°51'1211.7
2014-Oct-27 20:31S 04°22' E 111°39'1111.7
2014-Oct-27 19:33S 04°22' E 111°28'1211.6
2014-Oct-27 18:33S 04°21' E 111°16'2311.5
2014-Oct-27 16:32S 04°18' E 110°53'1111.6
2014-Oct-27 15:33S 04°14' E 110°42'1211.6
2014-Oct-27 14:33S 04°10' E 110°31'  
Track history (hours):
 
Tides and Currents Weather Stations Pressure Air Temp Water Temp Dewpoint Dewpoint Depression Visibility Wind Speed Wind Dir Waves Ship Positions

Rachel

Last reported at 2014-Oct-27 23:33 UTC. Time now 2014-Nov-01 08:30 UTC.
Position S 04°25' E 112°14'.

Length 189 m; draft 6.5 m.

Type: Cargo ship. MMSI: 636015692.

Date/timePositionNaut miles runAvg speedWind from/ knotsBaromVisibWave heightAir tempDewpointWater temp
2014-Oct-27 23:33S 04°25' E 112°14'1211.8
2014-Oct-27 22:33S 04°24' E 112°03'1211.8
2014-Oct-27 21:33S 04°23' E 111°51'1211.7
2014-Oct-27 20:31S 04°22' E 111°39'1111.7
2014-Oct-27 19:33S 04°22' E 111°28'1211.6
2014-Oct-27 18:33S 04°21' E 111°16'2311.5
2014-Oct-27 16:32S 04°18' E 110°53'1111.6
2014-Oct-27 15:33S 04°14' E 110°42'1211.6
2014-Oct-27 14:33S 04°10' E 110°31'  

Dump ship's entire track history